sensor_id;sensor_type;location;lat;lon;timestamp;P1;durP1;ratioP1;P2;durP2;ratioP2
37157;SDS011;23050;51.776;22.638;2023-12-29T00:01:15;30.92;;;14.63;;
37157;SDS011;23050;51.776;22.638;2023-12-29T00:03:41;34.20;;;15.77;;
37157;SDS011;23050;51.776;22.638;2023-12-29T00:06:07;33.15;;;15.75;;
37157;SDS011;23050;51.776;22.638;2023-12-29T00:08:33;35.00;;;15.15;;
37157;SDS011;23050;51.776;22.638;2023-12-29T00:10:58;30.52;;;15.88;;
37157;SDS011;23050;51.776;22.638;2023-12-29T00:13:24;39.35;;;18.98;;
37157;SDS011;23050;51.776;22.638;2023-12-29T00:15:56;34.00;;;16.55;;
37157;SDS011;23050;51.776;22.638;2023-12-29T00:18:23;36.83;;;16.67;;
37157;SDS011;23050;51.776;22.638;2023-12-29T00:20:49;37.22;;;17.40;;
37157;SDS011;23050;51.776;22.638;2023-12-29T00:23:15;34.50;;;17.23;;
37157;SDS011;23050;51.776;22.638;2023-12-29T00:25:40;32.95;;;15.90;;
37157;SDS011;23050;51.776;22.638;2023-12-29T00:28:06;36.05;;;17.50;;
37157;SDS011;23050;51.776;22.638;2023-12-29T00:30:32;30.13;;;14.77;;
37157;SDS011;23050;51.776;22.638;2023-12-29T00:32:57;31.08;;;16.08;;
37157;SDS011;23050;51.776;22.638;2023-12-29T00:35:23;39.97;;;17.42;;
37157;SDS011;23050;51.776;22.638;2023-12-29T00:37:52;32.25;;;16.35;;
37157;SDS011;23050;51.776;22.638;2023-12-29T00:40:19;32.97;;;15.30;;
37157;SDS011;23050;51.776;22.638;2023-12-29T00:42:45;30.40;;;15.23;;
37157;SDS011;23050;51.776;22.638;2023-12-29T00:45:10;32.35;;;15.38;;
37157;SDS011;23050;51.776;22.638;2023-12-29T00:47:36;32.95;;;15.55;;
37157;SDS011;23050;51.776;22.638;2023-12-29T00:50:02;33.03;;;15.52;;
37157;SDS011;23050;51.776;22.638;2023-12-29T00:52:28;39.72;;;17.35;;
37157;SDS011;23050;51.776;22.638;2023-12-29T00:54:54;39.95;;;17.75;;
37157;SDS011;23050;51.776;22.638;2023-12-29T00:57:19;33.83;;;15.13;;
37157;SDS011;23050;51.776;22.638;2023-12-29T00:59:46;35.75;;;16.23;;
37157;SDS011;23050;51.776;22.638;2023-12-29T01:02:12;35.28;;;15.85;;
37157;SDS011;23050;51.776;22.638;2023-12-29T01:04:38;41.95;;;19.00;;
37157;SDS011;23050;51.776;22.638;2023-12-29T01:07:05;51.05;;;19.25;;
37157;SDS011;23050;51.776;22.638;2023-12-29T01:09:30;43.83;;;18.98;;
37157;SDS011;23050;51.776;22.638;2023-12-29T01:11:56;39.63;;;16.77;;
37157;SDS011;23050;51.776;22.638;2023-12-29T01:14:22;40.88;;;17.58;;
37157;SDS011;23050;51.776;22.638;2023-12-29T01:16:47;42.53;;;18.30;;
37157;SDS011;23050;51.776;22.638;2023-12-29T01:19:13;33.10;;;16.38;;
37157;SDS011;23050;51.776;22.638;2023-12-29T01:21:39;33.20;;;16.80;;
37157;SDS011;23050;51.776;22.638;2023-12-29T01:24:05;33.63;;;15.98;;
37157;SDS011;23050;51.776;22.638;2023-12-29T01:26:36;37.67;;;17.85;;
37157;SDS011;23050;51.776;22.638;2023-12-29T01:29:03;34.80;;;17.10;;
37157;SDS011;23050;51.776;22.638;2023-12-29T01:31:29;33.58;;;16.42;;
37157;SDS011;23050;51.776;22.638;2023-12-29T01:33:55;32.67;;;16.33;;
37157;SDS011;23050;51.776;22.638;2023-12-29T01:36:22;32.60;;;17.50;;
37157;SDS011;23050;51.776;22.638;2023-12-29T01:38:48;41.00;;;18.25;;
37157;SDS011;23050;51.776;22.638;2023-12-29T01:41:14;34.75;;;17.35;;
37157;SDS011;23050;51.776;22.638;2023-12-29T01:46:31;33.67;;;15.73;;
37157;SDS011;23050;51.776;22.638;2023-12-29T01:48:59;42.03;;;18.02;;
37157;SDS011;23050;51.776;22.638;2023-12-29T01:51:25;33.15;;;16.17;;
37157;SDS011;23050;51.776;22.638;2023-12-29T01:53:52;36.30;;;18.40;;
37157;SDS011;23050;51.776;22.638;2023-12-29T01:56:19;36.55;;;17.75;;
37157;SDS011;23050;51.776;22.638;2023-12-29T01:58:46;37.33;;;17.35;;
37157;SDS011;23050;51.776;22.638;2023-12-29T02:01:16;42.78;;;18.05;;
37157;SDS011;23050;51.776;22.638;2023-12-29T02:03:44;36.45;;;18.40;;
37157;SDS011;23050;51.776;22.638;2023-12-29T02:06:10;33.55;;;16.77;;
37157;SDS011;23050;51.776;22.638;2023-12-29T02:08:37;29.15;;;15.15;;
37157;SDS011;23050;51.776;22.638;2023-12-29T02:11:03;38.90;;;18.98;;
37157;SDS011;23050;51.776;22.638;2023-12-29T02:13:29;42.00;;;18.77;;
37157;SDS011;23050;51.776;22.638;2023-12-29T02:15:56;36.42;;;17.23;;
37157;SDS011;23050;51.776;22.638;2023-12-29T02:18:27;32.75;;;16.58;;
37157;SDS011;23050;51.776;22.638;2023-12-29T02:20:58;34.70;;;17.90;;
37157;SDS011;23050;51.776;22.638;2023-12-29T02:23:23;34.38;;;17.98;;
37157;SDS011;23050;51.776;22.638;2023-12-29T02:25:49;34.10;;;17.63;;
37157;SDS011;23050;51.776;22.638;2023-12-29T02:28:22;36.95;;;19.05;;
37157;SDS011;23050;51.776;22.638;2023-12-29T02:31:07;41.17;;;18.90;;
37157;SDS011;23050;51.776;22.638;2023-12-29T02:33:41;39.20;;;18.73;;
37157;SDS011;23050;51.776;22.638;2023-12-29T02:36:10;34.42;;;17.40;;
37157;SDS011;23050;51.776;22.638;2023-12-29T02:38:37;33.95;;;16.48;;
37157;SDS011;23050;51.776;22.638;2023-12-29T02:41:04;35.58;;;18.23;;
37157;SDS011;23050;51.776;22.638;2023-12-29T02:43:33;38.53;;;17.98;;
37157;SDS011;23050;51.776;22.638;2023-12-29T02:45:59;32.53;;;16.77;;
37157;SDS011;23050;51.776;22.638;2023-12-29T02:48:24;31.77;;;17.17;;
37157;SDS011;23050;51.776;22.638;2023-12-29T02:50:50;34.25;;;16.58;;
37157;SDS011;23050;51.776;22.638;2023-12-29T02:53:16;39.25;;;18.42;;
37157;SDS011;23050;51.776;22.638;2023-12-29T02:55:41;31.33;;;17.40;;
37157;SDS011;23050;51.776;22.638;2023-12-29T02:58:08;32.40;;;16.95;;
37157;SDS011;23050;51.776;22.638;2023-12-29T03:00:34;37.88;;;18.38;;
37157;SDS011;23050;51.776;22.638;2023-12-29T03:03:00;42.28;;;18.58;;
37157;SDS011;23050;51.776;22.638;2023-12-29T03:05:26;34.75;;;17.70;;
37157;SDS011;23050;51.776;22.638;2023-12-29T03:07:51;34.92;;;17.50;;
37157;SDS011;23050;51.776;22.638;2023-12-29T03:10:17;39.67;;;19.50;;
37157;SDS011;23050;51.776;22.638;2023-12-29T03:12:43;40.30;;;19.73;;
37157;SDS011;23050;51.776;22.638;2023-12-29T03:15:09;33.78;;;18.85;;
37157;SDS011;23050;51.776;22.638;2023-12-29T03:17:35;37.78;;;19.13;;
37157;SDS011;23050;51.776;22.638;2023-12-29T03:20:01;37.30;;;18.60;;
37157;SDS011;23050;51.776;22.638;2023-12-29T03:22:28;38.70;;;17.83;;
37157;SDS011;23050;51.776;22.638;2023-12-29T03:24:53;37.85;;;19.45;;
37157;SDS011;23050;51.776;22.638;2023-12-29T03:27:20;38.70;;;18.20;;
37157;SDS011;23050;51.776;22.638;2023-12-29T03:29:46;35.53;;;18.25;;
37157;SDS011;23050;51.776;22.638;2023-12-29T03:32:11;38.13;;;18.48;;
37157;SDS011;23050;51.776;22.638;2023-12-29T03:34:37;36.00;;;18.60;;
37157;SDS011;23050;51.776;22.638;2023-12-29T03:37:03;41.75;;;19.25;;
37157;SDS011;23050;51.776;22.638;2023-12-29T03:39:29;34.45;;;17.52;;
37157;SDS011;23050;51.776;22.638;2023-12-29T03:41:55;39.92;;;18.58;;
37157;SDS011;23050;51.776;22.638;2023-12-29T03:44:20;41.70;;;19.75;;
37157;SDS011;23050;51.776;22.638;2023-12-29T03:46:46;38.38;;;18.73;;
37157;SDS011;23050;51.776;22.638;2023-12-29T03:49:12;41.33;;;19.67;;
37157;SDS011;23050;51.776;22.638;2023-12-29T03:51:37;36.33;;;18.90;;
37157;SDS011;23050;51.776;22.638;2023-12-29T03:54:03;44.92;;;19.85;;
37157;SDS011;23050;51.776;22.638;2023-12-29T03:56:29;39.75;;;20.45;;
37157;SDS011;23050;51.776;22.638;2023-12-29T03:58:55;38.83;;;18.58;;
37157;SDS011;23050;51.776;22.638;2023-12-29T04:01:20;35.97;;;18.60;;
37157;SDS011;23050;51.776;22.638;2023-12-29T04:03:46;38.95;;;18.38;;
37157;SDS011;23050;51.776;22.638;2023-12-29T04:06:12;42.67;;;21.15;;
37157;SDS011;23050;51.776;22.638;2023-12-29T04:08:37;38.47;;;18.75;;
37157;SDS011;23050;51.776;22.638;2023-12-29T04:11:04;39.55;;;18.73;;
37157;SDS011;23050;51.776;22.638;2023-12-29T04:13:30;36.83;;;18.50;;
37157;SDS011;23050;51.776;22.638;2023-12-29T04:15:56;43.90;;;19.00;;
37157;SDS011;23050;51.776;22.638;2023-12-29T04:18:22;42.92;;;20.05;;
37157;SDS011;23050;51.776;22.638;2023-12-29T04:20:49;44.53;;;20.73;;
37157;SDS011;23050;51.776;22.638;2023-12-29T04:23:15;39.00;;;18.35;;
37157;SDS011;23050;51.776;22.638;2023-12-29T04:25:41;45.60;;;21.15;;
37157;SDS011;23050;51.776;22.638;2023-12-29T04:28:08;48.05;;;20.70;;
37157;SDS011;23050;51.776;22.638;2023-12-29T04:30:34;44.97;;;20.48;;
37157;SDS011;23050;51.776;22.638;2023-12-29T04:33:00;46.20;;;20.63;;
37157;SDS011;23050;51.776;22.638;2023-12-29T04:35:26;45.17;;;20.67;;
37157;SDS011;23050;51.776;22.638;2023-12-29T04:37:51;46.00;;;20.77;;
37157;SDS011;23050;51.776;22.638;2023-12-29T04:40:17;42.53;;;19.75;;
37157;SDS011;23050;51.776;22.638;2023-12-29T04:42:43;52.30;;;22.17;;
37157;SDS011;23050;51.776;22.638;2023-12-29T04:45:09;40.88;;;21.30;;
37157;SDS011;23050;51.776;22.638;2023-12-29T04:47:36;44.25;;;21.77;;
37157;SDS011;23050;51.776;22.638;2023-12-29T04:50:02;44.78;;;21.00;;
37157;SDS011;23050;51.776;22.638;2023-12-29T04:52:28;44.28;;;20.55;;
37157;SDS011;23050;51.776;22.638;2023-12-29T04:54:54;42.58;;;20.73;;
37157;SDS011;23050;51.776;22.638;2023-12-29T04:57:20;41.35;;;19.23;;
37157;SDS011;23050;51.776;22.638;2023-12-29T04:59:46;46.03;;;21.17;;
37157;SDS011;23050;51.776;22.638;2023-12-29T05:02:11;48.05;;;22.33;;
37157;SDS011;23050;51.776;22.638;2023-12-29T05:04:37;47.30;;;21.05;;
37157;SDS011;23050;51.776;22.638;2023-12-29T05:07:07;42.45;;;21.67;;
37157;SDS011;23050;51.776;22.638;2023-12-29T05:09:34;48.67;;;20.43;;
37157;SDS011;23050;51.776;22.638;2023-12-29T05:12:00;47.97;;;21.80;;
37157;SDS011;23050;51.776;22.638;2023-12-29T05:14:25;46.33;;;22.00;;
37157;SDS011;23050;51.776;22.638;2023-12-29T05:16:51;50.45;;;22.77;;
37157;SDS011;23050;51.776;22.638;2023-12-29T05:19:17;49.47;;;23.50;;
37157;SDS011;23050;51.776;22.638;2023-12-29T05:21:43;43.88;;;21.92;;
37157;SDS011;23050;51.776;22.638;2023-12-29T05:24:08;44.90;;;22.48;;
37157;SDS011;23050;51.776;22.638;2023-12-29T05:26:34;50.38;;;23.10;;
37157;SDS011;23050;51.776;22.638;2023-12-29T05:29:00;48.92;;;23.73;;
37157;SDS011;23050;51.776;22.638;2023-12-29T05:31:25;52.17;;;22.65;;
37157;SDS011;23050;51.776;22.638;2023-12-29T05:33:51;49.05;;;23.45;;
37157;SDS011;23050;51.776;22.638;2023-12-29T05:36:17;43.35;;;22.15;;
37157;SDS011;23050;51.776;22.638;2023-12-29T05:38:44;45.03;;;21.92;;
37157;SDS011;23050;51.776;22.638;2023-12-29T05:41:14;46.33;;;22.50;;
37157;SDS011;23050;51.776;22.638;2023-12-29T05:43:40;48.47;;;24.75;;
37157;SDS011;23050;51.776;22.638;2023-12-29T05:46:12;47.70;;;22.60;;
37157;SDS011;23050;51.776;22.638;2023-12-29T05:48:38;50.35;;;23.65;;
37157;SDS011;23050;51.776;22.638;2023-12-29T05:51:08;47.03;;;22.33;;
37157;SDS011;23050;51.776;22.638;2023-12-29T05:53:34;50.13;;;23.95;;
37157;SDS011;23050;51.776;22.638;2023-12-29T05:56:00;49.08;;;23.58;;
37157;SDS011;23050;51.776;22.638;2023-12-29T05:58:26;53.63;;;23.90;;
37157;SDS011;23050;51.776;22.638;2023-12-29T06:00:52;63.72;;;27.15;;
37157;SDS011;23050;51.776;22.638;2023-12-29T06:03:19;62.75;;;28.42;;
37157;SDS011;23050;51.776;22.638;2023-12-29T06:05:45;52.92;;;25.77;;
37157;SDS011;23050;51.776;22.638;2023-12-29T06:08:11;50.17;;;25.40;;
37157;SDS011;23050;51.776;22.638;2023-12-29T06:10:36;51.75;;;24.20;;
37157;SDS011;23050;51.776;22.638;2023-12-29T06:13:02;51.40;;;24.20;;
37157;SDS011;23050;51.776;22.638;2023-12-29T06:15:28;56.53;;;26.20;;
37157;SDS011;23050;51.776;22.638;2023-12-29T06:17:54;47.75;;;23.27;;
37157;SDS011;23050;51.776;22.638;2023-12-29T06:20:20;49.58;;;23.08;;
37157;SDS011;23050;51.776;22.638;2023-12-29T06:22:46;56.10;;;27.00;;
37157;SDS011;23050;51.776;22.638;2023-12-29T06:25:11;61.33;;;28.70;;
37157;SDS011;23050;51.776;22.638;2023-12-29T06:27:38;60.92;;;28.98;;
37157;SDS011;23050;51.776;22.638;2023-12-29T06:30:05;56.80;;;28.00;;
37157;SDS011;23050;51.776;22.638;2023-12-29T06:32:35;63.17;;;27.52;;
37157;SDS011;23050;51.776;22.638;2023-12-29T06:35:01;54.10;;;26.40;;
37157;SDS011;23050;51.776;22.638;2023-12-29T06:37:28;55.42;;;25.92;;
37157;SDS011;23050;51.776;22.638;2023-12-29T06:39:54;54.15;;;27.08;;
37157;SDS011;23050;51.776;22.638;2023-12-29T06:42:19;56.83;;;29.75;;
37157;SDS011;23050;51.776;22.638;2023-12-29T06:44:45;64.43;;;31.42;;
37157;SDS011;23050;51.776;22.638;2023-12-29T06:47:11;62.47;;;29.90;;
37157;SDS011;23050;51.776;22.638;2023-12-29T06:49:37;62.47;;;29.80;;
37157;SDS011;23050;51.776;22.638;2023-12-29T06:52:04;57.70;;;27.58;;
37157;SDS011;23050;51.776;22.638;2023-12-29T06:54:30;62.10;;;29.83;;
37157;SDS011;23050;51.776;22.638;2023-12-29T06:56:56;57.63;;;27.95;;
37157;SDS011;23050;51.776;22.638;2023-12-29T06:59:22;64.38;;;29.55;;
37157;SDS011;23050;51.776;22.638;2023-12-29T07:01:48;55.72;;;25.75;;
37157;SDS011;23050;51.776;22.638;2023-12-29T07:04:14;52.05;;;25.98;;
37157;SDS011;23050;51.776;22.638;2023-12-29T07:06:40;56.13;;;26.75;;
37157;SDS011;23050;51.776;22.638;2023-12-29T07:09:08;56.25;;;26.25;;
37157;SDS011;23050;51.776;22.638;2023-12-29T07:11:34;50.03;;;24.85;;
37157;SDS011;23050;51.776;22.638;2023-12-29T07:14:01;47.95;;;25.77;;
37157;SDS011;23050;51.776;22.638;2023-12-29T07:16:27;57.17;;;26.38;;
37157;SDS011;23050;51.776;22.638;2023-12-29T07:18:53;51.40;;;26.88;;
37157;SDS011;23050;51.776;22.638;2023-12-29T07:21:19;53.95;;;26.17;;
37157;SDS011;23050;51.776;22.638;2023-12-29T07:23:44;46.40;;;24.55;;
37157;SDS011;23050;51.776;22.638;2023-12-29T07:26:10;49.47;;;24.77;;
37157;SDS011;23050;51.776;22.638;2023-12-29T07:28:36;49.60;;;24.88;;
37157;SDS011;23050;51.776;22.638;2023-12-29T07:31:02;50.65;;;23.27;;
37157;SDS011;23050;51.776;22.638;2023-12-29T07:33:28;49.97;;;24.65;;
37157;SDS011;23050;51.776;22.638;2023-12-29T07:35:54;42.28;;;20.90;;
37157;SDS011;23050;51.776;22.638;2023-12-29T07:38:20;46.22;;;22.75;;
37157;SDS011;23050;51.776;22.638;2023-12-29T07:40:46;45.80;;;23.02;;
37157;SDS011;23050;51.776;22.638;2023-12-29T07:43:13;49.05;;;23.60;;
37157;SDS011;23050;51.776;22.638;2023-12-29T07:45:38;44.08;;;24.58;;
37157;SDS011;23050;51.776;22.638;2023-12-29T07:48:04;45.88;;;23.63;;
37157;SDS011;23050;51.776;22.638;2023-12-29T07:50:31;44.72;;;22.17;;
37157;SDS011;23050;51.776;22.638;2023-12-29T07:52:57;46.72;;;21.73;;
37157;SDS011;23050;51.776;22.638;2023-12-29T07:55:22;43.25;;;22.33;;
37157;SDS011;23050;51.776;22.638;2023-12-29T07:57:48;48.95;;;22.45;;
37157;SDS011;23050;51.776;22.638;2023-12-29T08:00:15;48.00;;;22.02;;
37157;SDS011;23050;51.776;22.638;2023-12-29T08:02:40;41.40;;;19.98;;
37157;SDS011;23050;51.776;22.638;2023-12-29T08:05:06;47.13;;;23.67;;
37157;SDS011;23050;51.776;22.638;2023-12-29T08:07:35;50.42;;;23.27;;
37157;SDS011;23050;51.776;22.638;2023-12-29T08:10:03;44.92;;;23.98;;
37157;SDS011;23050;51.776;22.638;2023-12-29T08:12:30;43.75;;;23.58;;
37157;SDS011;23050;51.776;22.638;2023-12-29T08:14:55;49.97;;;24.50;;
37157;SDS011;23050;51.776;22.638;2023-12-29T08:17:21;59.67;;;26.77;;
37157;SDS011;23050;51.776;22.638;2023-12-29T08:19:47;76.15;;;42.35;;
37157;SDS011;23050;51.776;22.638;2023-12-29T08:22:13;62.70;;;30.73;;
37157;SDS011;23050;51.776;22.638;2023-12-29T08:24:42;54.25;;;26.45;;
37157;SDS011;23050;51.776;22.638;2023-12-29T08:27:09;50.78;;;24.83;;
37157;SDS011;23050;51.776;22.638;2023-12-29T08:29:37;36.55;;;19.67;;
37157;SDS011;23050;51.776;22.638;2023-12-29T08:32:02;48.70;;;25.67;;
37157;SDS011;23050;51.776;22.638;2023-12-29T08:34:28;63.55;;;33.85;;
37157;SDS011;23050;51.776;22.638;2023-12-29T08:36:54;55.97;;;31.55;;
37157;SDS011;23050;51.776;22.638;2023-12-29T08:39:20;41.08;;;22.80;;
37157;SDS011;23050;51.776;22.638;2023-12-29T08:41:46;44.70;;;27.60;;
37157;SDS011;23050;51.776;22.638;2023-12-29T08:44:12;38.58;;;21.42;;
37157;SDS011;23050;51.776;22.638;2023-12-29T08:46:38;37.15;;;21.92;;
37157;SDS011;23050;51.776;22.638;2023-12-29T08:49:04;39.88;;;22.05;;
37157;SDS011;23050;51.776;22.638;2023-12-29T08:51:29;35.35;;;21.05;;
37157;SDS011;23050;51.776;22.638;2023-12-29T08:53:55;46.80;;;25.38;;
37157;SDS011;23050;51.776;22.638;2023-12-29T08:56:21;66.18;;;30.65;;
37157;SDS011;23050;51.776;22.638;2023-12-29T08:58:47;62.58;;;28.30;;
37157;SDS011;23050;51.776;22.638;2023-12-29T09:01:12;54.97;;;25.15;;
37157;SDS011;23050;51.776;22.638;2023-12-29T09:03:38;66.22;;;29.80;;
37157;SDS011;23050;51.776;22.638;2023-12-29T09:06:04;58.05;;;29.23;;
37157;SDS011;23050;51.776;22.638;2023-12-29T09:08:30;52.40;;;25.55;;
37157;SDS011;23050;51.776;22.638;2023-12-29T09:10:58;70.03;;;33.38;;
37157;SDS011;23050;51.776;22.638;2023-12-29T09:13:23;53.30;;;25.08;;
37157;SDS011;23050;51.776;22.638;2023-12-29T09:15:51;54.20;;;24.98;;
37157;SDS011;23050;51.776;22.638;2023-12-29T09:18:17;51.22;;;32.92;;
37157;SDS011;23050;51.776;22.638;2023-12-29T09:20:42;37.08;;;17.70;;
37157;SDS011;23050;51.776;22.638;2023-12-29T09:23:08;32.65;;;18.73;;
37157;SDS011;23050;51.776;22.638;2023-12-29T09:25:34;36.88;;;24.48;;
37157;SDS011;23050;51.776;22.638;2023-12-29T09:27:59;36.90;;;17.60;;
37157;SDS011;23050;51.776;22.638;2023-12-29T09:30:26;33.53;;;18.55;;
37157;SDS011;23050;51.776;22.638;2023-12-29T09:32:51;43.55;;;23.38;;
37157;SDS011;23050;51.776;22.638;2023-12-29T09:35:17;37.95;;;19.27;;
37157;SDS011;23050;51.776;22.638;2023-12-29T09:37:43;31.20;;;16.73;;
37157;SDS011;23050;51.776;22.638;2023-12-29T09:40:09;38.95;;;21.45;;
37157;SDS011;23050;51.776;22.638;2023-12-29T09:42:36;40.25;;;19.15;;
37157;SDS011;23050;51.776;22.638;2023-12-29T09:45:04;37.53;;;17.83;;
37157;SDS011;23050;51.776;22.638;2023-12-29T09:47:35;34.17;;;18.33;;
37157;SDS011;23050;51.776;22.638;2023-12-29T09:50:04;30.80;;;17.27;;
37157;SDS011;23050;51.776;22.638;2023-12-29T09:52:32;28.10;;;16.15;;
37157;SDS011;23050;51.776;22.638;2023-12-29T09:54:58;29.85;;;15.75;;
37157;SDS011;23050;51.776;22.638;2023-12-29T09:57:24;25.23;;;14.68;;
37157;SDS011;23050;51.776;22.638;2023-12-29T09:59:50;31.80;;;18.30;;
37157;SDS011;23050;51.776;22.638;2023-12-29T10:02:16;31.88;;;16.45;;
37157;SDS011;23050;51.776;22.638;2023-12-29T10:04:42;27.73;;;16.77;;
37157;SDS011;23050;51.776;22.638;2023-12-29T10:07:08;25.73;;;15.55;;
37157;SDS011;23050;51.776;22.638;2023-12-29T10:09:40;29.63;;;15.38;;
37157;SDS011;23050;51.776;22.638;2023-12-29T10:12:08;26.45;;;14.65;;
37157;SDS011;23050;51.776;22.638;2023-12-29T10:17:08;31.58;;;14.90;;
37157;SDS011;23050;51.776;22.638;2023-12-29T10:19:41;38.20;;;17.90;;
37157;SDS011;23050;51.776;22.638;2023-12-29T10:22:21;29.98;;;17.42;;
37157;SDS011;23050;51.776;22.638;2023-12-29T10:24:53;25.63;;;14.60;;
37157;SDS011;23050;51.776;22.638;2023-12-29T10:27:19;26.75;;;15.82;;
37157;SDS011;23050;51.776;22.638;2023-12-29T10:29:45;41.67;;;24.38;;
37157;SDS011;23050;51.776;22.638;2023-12-29T10:32:12;24.95;;;15.25;;
37157;SDS011;23050;51.776;22.638;2023-12-29T10:34:38;24.60;;;14.00;;
37157;SDS011;23050;51.776;22.638;2023-12-29T10:37:03;27.83;;;16.13;;
37157;SDS011;23050;51.776;22.638;2023-12-29T10:39:34;29.67;;;18.73;;
37157;SDS011;23050;51.776;22.638;2023-12-29T10:42:04;28.10;;;14.27;;
37157;SDS011;23050;51.776;22.638;2023-12-29T10:44:33;21.30;;;13.32;;
37157;SDS011;23050;51.776;22.638;2023-12-29T10:47:07;29.33;;;14.82;;
37157;SDS011;23050;51.776;22.638;2023-12-29T10:49:36;22.10;;;12.65;;
37157;SDS011;23050;51.776;22.638;2023-12-29T10:52:13;22.50;;;10.98;;
37157;SDS011;23050;51.776;22.638;2023-12-29T10:54:39;28.02;;;14.02;;
37157;SDS011;23050;51.776;22.638;2023-12-29T10:57:05;26.23;;;14.25;;
37157;SDS011;23050;51.776;22.638;2023-12-29T10:59:34;24.27;;;14.35;;
37157;SDS011;23050;51.776;22.638;2023-12-29T11:02:03;21.35;;;10.77;;
37157;SDS011;23050;51.776;22.638;2023-12-29T11:04:29;20.08;;;11.55;;
37157;SDS011;23050;51.776;22.638;2023-12-29T11:06:55;20.95;;;11.73;;
37157;SDS011;23050;51.776;22.638;2023-12-29T11:09:31;20.10;;;11.02;;
37157;SDS011;23050;51.776;22.638;2023-12-29T11:11:59;29.60;;;14.45;;
37157;SDS011;23050;51.776;22.638;2023-12-29T11:14:29;15.88;;;9.07;;
37157;SDS011;23050;51.776;22.638;2023-12-29T11:16:56;22.27;;;10.05;;
37157;SDS011;23050;51.776;22.638;2023-12-29T11:19:23;26.08;;;11.95;;
37157;SDS011;23050;51.776;22.638;2023-12-29T11:21:51;16.63;;;9.35;;
37157;SDS011;23050;51.776;22.638;2023-12-29T11:24:19;17.73;;;8.88;;
37157;SDS011;23050;51.776;22.638;2023-12-29T11:26:45;17.92;;;9.45;;
37157;SDS011;23050;51.776;22.638;2023-12-29T11:29:11;17.08;;;9.68;;
37157;SDS011;23050;51.776;22.638;2023-12-29T11:31:38;20.33;;;10.20;;
37157;SDS011;23050;51.776;22.638;2023-12-29T11:34:05;29.83;;;12.25;;
37157;SDS011;23050;51.776;22.638;2023-12-29T11:36:38;24.00;;;11.57;;
37157;SDS011;23050;51.776;22.638;2023-12-29T11:44:42;27.67;;;12.68;;
37157;SDS011;23050;51.776;22.638;2023-12-29T11:50:04;28.20;;;13.73;;
37157;SDS011;23050;51.776;22.638;2023-12-29T11:52:38;17.10;;;9.32;;
37157;SDS011;23050;51.776;22.638;2023-12-29T11:55:11;18.80;;;10.38;;
37157;SDS011;23050;51.776;22.638;2023-12-29T11:57:38;17.27;;;9.55;;
37157;SDS011;23050;51.776;22.638;2023-12-29T12:02:33;30.10;;;12.75;;
37157;SDS011;23050;51.776;22.638;2023-12-29T12:05:00;18.77;;;8.95;;
37157;SDS011;23050;51.776;22.638;2023-12-29T12:09:52;20.13;;;10.35;;
37157;SDS011;23050;51.776;22.638;2023-12-29T12:12:58;18.52;;;9.32;;
37157;SDS011;23050;51.776;22.638;2023-12-29T12:20:22;21.40;;;10.20;;
37157;SDS011;23050;51.776;22.638;2023-12-29T12:22:49;20.00;;;9.90;;
37157;SDS011;23050;51.776;22.638;2023-12-29T12:25:21;17.52;;;9.57;;
37157;SDS011;23050;51.776;22.638;2023-12-29T12:27:50;20.83;;;10.77;;
37157;SDS011;23050;51.776;22.638;2023-12-29T12:30:20;14.65;;;8.68;;
37157;SDS011;23050;51.776;22.638;2023-12-29T12:32:46;25.83;;;12.38;;
37157;SDS011;23050;51.776;22.638;2023-12-29T12:35:22;21.83;;;10.55;;
37157;SDS011;23050;51.776;22.638;2023-12-29T12:37:48;23.05;;;10.75;;
37157;SDS011;23050;51.776;22.638;2023-12-29T12:40:26;19.70;;;9.60;;
37157;SDS011;23050;51.776;22.638;2023-12-29T12:42:52;12.02;;;7.07;;
37157;SDS011;23050;51.776;22.638;2023-12-29T12:45:20;22.75;;;11.02;;
37157;SDS011;23050;51.776;22.638;2023-12-29T12:50:24;42.10;;;18.60;;
37157;SDS011;23050;51.776;22.638;2023-12-29T12:52:49;26.42;;;11.75;;
37157;SDS011;23050;51.776;22.638;2023-12-29T12:55:17;37.88;;;18.05;;
37157;SDS011;23050;51.776;22.638;2023-12-29T12:57:43;32.28;;;15.27;;
37157;SDS011;23050;51.776;22.638;2023-12-29T13:00:11;36.97;;;16.88;;
37157;SDS011;23050;51.776;22.638;2023-12-29T13:02:55;23.80;;;12.27;;
37157;SDS011;23050;51.776;22.638;2023-12-29T13:05:21;19.13;;;10.80;;
37157;SDS011;23050;51.776;22.638;2023-12-29T13:07:47;24.52;;;14.07;;
37157;SDS011;23050;51.776;22.638;2023-12-29T13:10:13;15.23;;;8.20;;
37157;SDS011;23050;51.776;22.638;2023-12-29T13:12:39;20.88;;;12.23;;
37157;SDS011;23050;51.776;22.638;2023-12-29T13:15:05;28.67;;;16.40;;
37157;SDS011;23050;51.776;22.638;2023-12-29T13:17:33;24.07;;;12.30;;
37157;SDS011;23050;51.776;22.638;2023-12-29T13:19:59;19.52;;;9.77;;
37157;SDS011;23050;51.776;22.638;2023-12-29T13:22:24;23.35;;;11.70;;
37157;SDS011;23050;51.776;22.638;2023-12-29T13:24:52;20.13;;;11.27;;
37157;SDS011;23050;51.776;22.638;2023-12-29T13:27:19;20.27;;;11.45;;
37157;SDS011;23050;51.776;22.638;2023-12-29T13:29:45;27.60;;;13.43;;
37157;SDS011;23050;51.776;22.638;2023-12-29T13:32:22;25.45;;;13.95;;
37157;SDS011;23050;51.776;22.638;2023-12-29T13:40:27;18.88;;;9.00;;
37157;SDS011;23050;51.776;22.638;2023-12-29T13:43:02;140.93;;;54.35;;
37157;SDS011;23050;51.776;22.638;2023-12-29T13:45:29;18.15;;;8.75;;
37157;SDS011;23050;51.776;22.638;2023-12-29T13:47:56;13.45;;;7.13;;
37157;SDS011;23050;51.776;22.638;2023-12-29T13:50:23;15.45;;;7.68;;
37157;SDS011;23050;51.776;22.638;2023-12-29T13:52:49;15.88;;;7.85;;
37157;SDS011;23050;51.776;22.638;2023-12-29T13:55:22;17.52;;;10.18;;
37157;SDS011;23050;51.776;22.638;2023-12-29T13:57:48;17.65;;;9.48;;
37157;SDS011;23050;51.776;22.638;2023-12-29T14:00:21;15.98;;;8.77;;
37157;SDS011;23050;51.776;22.638;2023-12-29T14:05:24;19.48;;;10.63;;
37157;SDS011;23050;51.776;22.638;2023-12-29T14:08:23;23.60;;;12.70;;
37157;SDS011;23050;51.776;22.638;2023-12-29T14:10:58;47.42;;;17.52;;
37157;SDS011;23050;51.776;22.638;2023-12-29T14:13:24;26.63;;;14.38;;
37157;SDS011;23050;51.776;22.638;2023-12-29T14:15:52;25.27;;;13.65;;
37157;SDS011;23050;51.776;22.638;2023-12-29T14:20:46;27.30;;;12.43;;
37157;SDS011;23050;51.776;22.638;2023-12-29T14:23:12;31.95;;;14.98;;
37157;SDS011;23050;51.776;22.638;2023-12-29T14:25:39;29.23;;;14.98;;
37157;SDS011;23050;51.776;22.638;2023-12-29T14:28:13;23.40;;;13.40;;
37157;SDS011;23050;51.776;22.638;2023-12-29T14:30:43;26.88;;;12.88;;
37157;SDS011;23050;51.776;22.638;2023-12-29T14:33:09;26.25;;;13.20;;
37157;SDS011;23050;51.776;22.638;2023-12-29T14:35:35;21.35;;;12.55;;
37157;SDS011;23050;51.776;22.638;2023-12-29T14:38:01;29.92;;;15.10;;
37157;SDS011;23050;51.776;22.638;2023-12-29T14:40:27;33.75;;;17.25;;
37157;SDS011;23050;51.776;22.638;2023-12-29T14:42:53;24.70;;;12.63;;
37157;SDS011;23050;51.776;22.638;2023-12-29T14:45:19;28.50;;;15.35;;